createdAt,value
2019-02-21T00:02:13.708Z,71.03
2019-02-21T00:04:42.175Z,71.06
2019-02-21T00:07:10.799Z,71.12
2019-02-21T00:09:39.263Z,71.13
2019-02-21T00:12:07.685Z,71.15
2019-02-21T00:14:36.204Z,71.14
2019-02-21T00:17:04.780Z,71.14
2019-02-21T00:19:33.243Z,71.31
2019-02-21T00:22:01.740Z,71.38
2019-02-21T00:24:30.155Z,71.42
2019-02-21T00:26:58.742Z,71.51
2019-02-21T00:29:27.204Z,71.51
2019-02-21T00:31:55.623Z,71.63
2019-02-21T00:34:24.186Z,71.75
2019-02-21T00:36:52.668Z,71.78
2019-02-21T00:39:21.242Z,71.81
2019-02-21T00:41:49.708Z,71.78
2019-02-21T00:44:18.157Z,71.90
2019-02-21T00:46:46.676Z,71.93
2019-02-21T00:49:15.111Z,71.90
2019-02-21T00:51:43.560Z,71.96
2019-02-21T00:54:12.159Z,72.00
2019-02-21T00:56:40.683Z,71.96
2019-02-21T00:59:09.272Z,71.86
2019-02-21T01:01:37.728Z,71.92
2019-02-21T01:04:06.287Z,71.94
2019-02-21T01:06:34.750Z,71.98
2019-02-21T01:09:04.414Z,72.03
2019-02-21T01:11:32.965Z,72.06
2019-02-21T01:14:01.470Z,72.15
2019-02-21T01:16:30.073Z,72.19
2019-02-21T01:18:58.675Z,72.21
2019-02-21T01:21:27.090Z,72.22
2019-02-21T01:23:55.765Z,72.31
2019-02-21T01:26:24.213Z,72.39
2019-02-21T01:28:53.159Z,72.47
2019-02-21T01:31:21.683Z,72.63
2019-02-21T01:33:50.486Z,72.76
2019-02-21T01:36:19.081Z,72.71
2019-02-21T01:38:47.602Z,72.83
2019-02-21T01:41:16.090Z,72.83
2019-02-21T01:43:44.538Z,72.91
2019-02-21T01:46:13.043Z,72.95
2019-02-21T01:48:41.525Z,72.91
2019-02-21T01:51:10.075Z,72.94
2019-02-21T01:53:38.597Z,72.96
2019-02-21T01:56:07.273Z,73.06
2019-02-21T01:58:35.799Z,73.01
2019-02-21T02:01:08.592Z,73.03
2019-02-21T02:03:34.810Z,73.06
2019-02-21T02:06:03.243Z,73.09
2019-02-21T02:08:31.743Z,73.13
2019-02-21T02:11:00.295Z,73.20
2019-02-21T02:13:28.754Z,73.19
2019-02-21T02:15:57.188Z,73.24
2019-02-21T02:18:25.667Z,73.23
2019-02-21T02:20:54.259Z,73.38
2019-02-21T02:23:22.677Z,73.47
2019-02-21T02:25:51.141Z,73.56
2019-02-21T02:28:19.617Z,73.67
2019-02-21T02:30:48.278Z,73.70
2019-02-21T02:33:16.835Z,73.77
2019-02-21T02:35:45.441Z,73.86
2019-02-21T02:38:13.947Z,73.91
2019-02-21T02:40:42.465Z,73.87
2019-02-21T02:43:11.238Z,73.89
2019-02-21T02:45:39.717Z,74.02
2019-02-21T02:48:08.215Z,74.02
2019-02-21T02:50:36.670Z,74.08
2019-02-21T02:53:05.108Z,74.19
2019-02-21T02:55:33.563Z,74.23
2019-02-21T02:58:01.983Z,74.28
2019-02-21T03:00:30.485Z,74.20
2019-02-21T03:02:59.158Z,74.35
2019-02-21T03:05:27.772Z,74.44
2019-02-21T03:07:56.481Z,74.44
2019-02-21T03:10:25.004Z,74.51
2019-02-21T03:12:53.443Z,74.43
2019-02-21T03:15:22.033Z,74.39
2019-02-21T03:17:50.622Z,74.57
2019-02-21T03:20:19.144Z,74.67
2019-02-21T03:22:47.585Z,74.63
2019-02-21T03:25:16.348Z,74.70
2019-02-21T03:27:44.812Z,74.70
2019-02-21T03:30:13.548Z,74.80
2019-02-21T03:32:42.179Z,74.87
2019-02-21T03:35:10.797Z,74.97
2019-02-21T03:37:39.277Z,75.05
2019-02-21T03:40:09.699Z,75.05
2019-02-21T03:42:38.153Z,75.03
2019-02-21T03:45:09.978Z,75.03
2019-02-21T03:47:38.481Z,75.08
2019-02-21T03:50:09.377Z,75.10
2019-02-21T03:52:37.837Z,75.15
2019-02-21T03:55:07.529Z,75.25
2019-02-21T03:57:36.001Z,75.37
2019-02-21T04:00:07.196Z,75.34
2019-02-21T04:02:35.957Z,75.38
2019-02-21T04:05:05.528Z,75.42
2019-02-21T04:07:34.065Z,75.45
2019-02-21T04:10:02.778Z,75.42
2019-02-21T04:12:31.209Z,75.52
2019-02-21T04:14:59.736Z,75.59
2019-02-21T04:17:28.378Z,75.79
2019-02-21T04:19:56.868Z,75.85
2019-02-21T04:22:25.489Z,75.87
2019-02-21T04:24:54.077Z,75.88
2019-02-21T04:27:22.691Z,76.04
2019-02-21T04:29:51.223Z,76.07
2019-02-21T04:32:19.830Z,76.07
2019-02-21T04:34:48.282Z,76.12
2019-02-21T04:37:16.783Z,76.08
2019-02-21T04:39:45.240Z,76.09
2019-02-21T04:42:13.723Z,76.11
2019-02-21T04:44:42.192Z,76.10
2019-02-21T04:47:10.778Z,76.20
2019-02-21T04:49:39.275Z,76.18
2019-02-21T04:52:07.855Z,76.31
2019-02-21T04:54:36.385Z,76.42
2019-02-21T04:57:04.835Z,76.53
2019-02-21T04:59:33.274Z,76.59
2019-02-21T05:02:01.707Z,76.74
2019-02-21T05:04:30.280Z,76.74
2019-02-21T05:06:58.893Z,76.80
2019-02-21T05:09:27.520Z,76.86
2019-02-21T05:11:56.063Z,77.01
2019-02-21T05:14:24.694Z,77.10
2019-02-21T05:16:53.182Z,77.13
2019-02-21T05:19:21.634Z,77.22
2019-02-21T05:21:50.060Z,77.26
2019-02-21T05:24:18.565Z,77.34
2019-02-21T05:26:48.636Z,77.39
2019-02-21T05:29:17.157Z,77.31
2019-02-21T05:31:47.352Z,77.29
2019-02-21T05:34:26.574Z,77.33
2019-02-21T05:37:14.667Z,77.39
2019-02-21T05:40:03.550Z,77.39
2019-02-21T05:42:33.776Z,77.40
2019-02-21T05:45:11.090Z,77.37
2019-02-21T05:47:44.505Z,77.46
2019-02-21T05:50:20.453Z,77.46
2019-02-21T05:52:53.169Z,77.48
2019-02-21T05:55:26.168Z,77.49
2019-02-21T05:57:58.901Z,77.50
2019-02-21T06:00:28.947Z,77.60
2019-02-21T06:02:59.208Z,77.69
2019-02-21T06:05:29.453Z,77.75
2019-02-21T06:08:15.732Z,77.89
2019-02-21T06:10:45.882Z,77.92
2019-02-21T06:13:32.533Z,77.97
2019-02-21T06:16:05.948Z,78.03
2019-02-21T06:18:42.352Z,77.96
2019-02-21T06:21:12.457Z,78.05
2019-02-21T06:23:42.538Z,78.07
2019-02-21T06:26:12.614Z,78.14
2019-02-21T06:28:48.801Z,78.24
2019-02-21T06:31:17.454Z,78.27
2019-02-21T06:33:45.978Z,78.19
2019-02-21T06:36:14.572Z,78.25
2019-02-21T06:38:43.029Z,78.27
2019-02-21T06:41:11.524Z,78.28
2019-02-21T06:43:40.228Z,78.32
2019-02-21T06:46:08.720Z,78.32
2019-02-21T06:48:37.309Z,78.43
2019-02-21T06:51:05.819Z,78.53
2019-02-21T06:53:34.339Z,78.50
2019-02-21T06:56:02.975Z,78.53
2019-02-21T06:58:31.437Z,78.58
2019-02-21T07:00:59.863Z,78.64
2019-02-21T07:03:29.129Z,78.69
2019-02-21T07:05:57.703Z,78.59
2019-02-21T07:08:26.294Z,78.67
2019-02-21T07:11:05.516Z,78.56
2019-02-21T07:13:26.944Z,78.51
2019-02-21T07:15:55.205Z,78.58
2019-02-21T07:18:23.678Z,78.54
2019-02-21T07:20:52.124Z,78.52
2019-02-21T07:23:21.275Z,78.42
2019-02-21T07:25:50.826Z,78.44
2019-02-21T07:28:19.305Z,78.39
2019-02-21T07:30:48.459Z,78.38
2019-02-21T07:33:27.704Z,78.44
2019-02-21T07:35:47.161Z,78.48
2019-02-21T07:38:17.177Z,78.45
2019-02-21T07:40:46.224Z,78.36
2019-02-21T07:43:14.657Z,78.34
2019-02-21T07:45:43.180Z,78.22
2019-02-21T07:48:11.620Z,78.04
2019-02-21T07:50:40.153Z,77.98
2019-02-21T07:53:08.659Z,77.92
2019-02-21T07:55:37.114Z,77.96
2019-02-21T07:58:05.630Z,77.95
2019-02-21T08:00:34.307Z,77.94
2019-02-21T08:03:02.764Z,77.75
2019-02-21T08:05:31.233Z,77.54
2019-02-21T08:07:59.895Z,77.53
2019-02-21T08:10:33.617Z,77.62
2019-02-21T08:12:58.587Z,77.48
2019-02-21T08:15:27.880Z,77.50
2019-02-21T08:17:56.430Z,77.48
2019-02-21T08:20:33.540Z,77.41
2019-02-21T08:22:56.232Z,77.44
2019-02-21T08:25:24.836Z,77.37
2019-02-21T08:27:53.309Z,77.05
2019-02-21T08:30:21.787Z,77.00
2019-02-21T08:33:00.679Z,76.98
2019-02-21T08:35:30.125Z,77.07
2019-02-21T08:37:58.661Z,76.96
2019-02-21T08:40:27.443Z,76.82
2019-02-21T08:42:55.979Z,76.78
2019-02-21T08:45:24.647Z,76.84
2019-02-21T08:47:53.241Z,76.91
2019-02-21T08:50:22.480Z,76.82
2019-02-21T08:52:51.395Z,76.78
2019-02-21T08:55:19.918Z,76.62
2019-02-21T08:57:48.375Z,76.67
2019-02-21T09:00:17.243Z,76.42
2019-02-21T09:02:45.866Z,76.25
2019-02-21T09:05:14.926Z,76.26
2019-02-21T09:07:46.216Z,76.17
2019-02-21T09:10:14.259Z,76.14
2019-02-21T09:12:47.754Z,76.01
2019-02-21T09:15:15.709Z,76.07
2019-02-21T09:17:44.168Z,76.28
2019-02-21T09:20:12.936Z,76.32
2019-02-21T09:22:41.408Z,76.06
2019-02-21T09:25:13.754Z,76.07
2019-02-21T09:27:42.323Z,76.05
2019-02-21T09:30:15.823Z,76.11
2019-02-21T09:32:44.381Z,76.11
2019-02-21T09:35:12.988Z,75.82
2019-02-21T09:37:41.463Z,75.40
2019-02-21T09:40:12.708Z,75.02
2019-02-21T09:42:41.284Z,74.67
2019-02-21T09:45:18.010Z,74.81
2019-02-21T09:47:46.442Z,74.52
2019-02-21T09:50:15.247Z,74.43
2019-02-21T09:52:43.802Z,74.43
2019-02-21T09:55:15.116Z,74.17
2019-02-21T09:57:43.647Z,74.11
2019-02-21T10:00:22.590Z,74.12
2019-02-21T10:02:54.310Z,74.15
2019-02-21T10:05:21.251Z,74.57
2019-02-21T10:07:49.770Z,74.57
2019-02-21T10:10:19.769Z,74.58
2019-02-21T10:12:48.316Z,74.58
2019-02-21T10:15:19.794Z,74.28
2019-02-21T10:17:50.759Z,74.27
2019-02-21T10:20:20.428Z,74.19
2019-02-21T10:22:48.877Z,74.01
2019-02-21T10:25:26.243Z,74.12
2019-02-21T10:27:54.751Z,74.10
2019-02-21T10:30:23.893Z,73.99
2019-02-21T10:32:52.458Z,74.06
2019-02-21T10:35:21.020Z,74.02
2019-02-21T10:37:49.543Z,74.06
2019-02-21T10:40:18.234Z,74.31
2019-02-21T10:42:46.834Z,74.25
2019-02-21T10:45:19.923Z,73.92
2019-02-21T10:47:48.530Z,73.40
2019-02-21T10:50:19.553Z,73.08
2019-02-21T10:52:48.480Z,72.74
2019-02-21T10:55:18.071Z,72.45
2019-02-21T10:57:46.814Z,71.79
2019-02-21T11:00:26.950Z,71.04
2019-02-21T11:02:55.596Z,70.84
2019-02-21T11:05:24.105Z,70.74
2019-02-21T11:07:52.651Z,69.72
2019-02-21T11:10:28.997Z,69.67
2019-02-21T11:12:57.584Z,69.42
2019-02-21T11:15:26.525Z,69.29
2019-02-21T11:17:55.519Z,68.67
2019-02-21T11:20:24.297Z,67.42
2019-02-21T11:22:52.790Z,67.32
2019-02-21T11:25:21.538Z,66.71
2019-02-21T11:27:50.080Z,65.73
2019-02-21T11:30:19.662Z,65.74
2019-02-21T11:32:48.191Z,64.35
2019-02-21T11:35:16.838Z,64.30
2019-02-21T11:37:47.110Z,64.02
2019-02-21T11:40:17.543Z,63.64
2019-02-21T11:42:46.325Z,62.91
2019-02-21T11:45:17.801Z,62.85
2019-02-21T11:47:46.422Z,63.21
2019-02-21T11:50:16.609Z,63.16
2019-02-21T11:52:45.378Z,62.95
2019-02-21T11:55:16.260Z,63.46
2019-02-21T11:57:44.767Z,63.74
2019-02-21T12:00:19.450Z,64.33
2019-02-21T12:02:48.083Z,64.50
2019-02-21T12:05:17.746Z,64.78
2019-02-21T12:07:46.409Z,65.00
2019-02-21T12:10:15.194Z,64.96
2019-02-21T12:12:43.625Z,64.96
2019-02-21T12:15:13.644Z,65.02
2019-02-21T12:17:43.132Z,65.09
2019-02-21T12:20:18.761Z,65.42
2019-02-21T12:22:47.588Z,65.03
2019-02-21T12:25:21.903Z,65.20
2019-02-21T12:27:50.604Z,65.50
2019-02-21T12:30:20.074Z,65.98
2019-02-21T12:32:48.672Z,65.86
2019-02-21T12:35:28.725Z,65.95
2019-02-21T12:37:47.982Z,66.15
2019-02-21T12:40:19.524Z,66.25
2019-02-21T12:42:47.952Z,66.08
2019-02-21T12:45:19.280Z,66.29
2019-02-21T12:47:53.007Z,67.39
2019-02-21T12:50:18.298Z,67.92
2019-02-21T12:52:46.793Z,68.08
2019-02-21T12:55:26.408Z,69.06
2019-02-21T12:57:45.647Z,69.92
2019-02-21T13:00:21.226Z,70.22
2019-02-21T13:02:49.915Z,70.77
2019-02-21T13:05:18.719Z,71.39
2019-02-21T13:07:47.172Z,70.98
2019-02-21T13:10:24.137Z,70.98
2019-02-21T13:12:52.636Z,71.24
2019-02-21T13:15:21.450Z,71.35
2019-02-21T13:17:51.077Z,70.64
2019-02-21T13:20:19.860Z,70.16
2019-02-21T13:22:48.368Z,69.96
2019-02-21T13:25:18.231Z,70.66
2019-02-21T13:27:46.683Z,71.17
2019-02-21T13:30:18.603Z,70.67
2019-02-21T13:32:47.196Z,70.42
2019-02-21T13:35:15.766Z,70.30
2019-02-21T13:37:44.521Z,70.12
2019-02-21T13:40:20.787Z,69.85
2019-02-21T13:42:47.728Z,70.11
2019-02-21T13:45:18.124Z,70.74
2019-02-21T13:47:46.714Z,70.67
2019-02-21T13:50:20.388Z,70.68
2019-02-21T13:52:49.386Z,70.67
2019-02-21T13:55:17.833Z,70.90
2019-02-21T13:57:46.466Z,69.85
2019-02-21T14:00:20.217Z,70.55
2019-02-21T14:02:48.806Z,70.96
2019-02-21T14:05:17.392Z,71.01
2019-02-21T14:07:46.101Z,70.98
2019-02-21T14:10:14.898Z,71.05
2019-02-21T14:12:43.425Z,70.82
2019-02-21T14:15:17.467Z,70.01
2019-02-21T14:17:46.724Z,69.39
2019-02-21T14:20:15.579Z,69.46
2019-02-21T14:22:44.585Z,68.83
2019-02-21T14:25:13.123Z,68.89
2019-02-21T14:27:41.577Z,69.28
2019-02-21T14:30:13.172Z,68.88
2019-02-21T14:32:41.642Z,68.83
2019-02-21T14:35:12.127Z,68.46
2019-02-21T14:37:40.629Z,67.94
2019-02-21T14:40:11.275Z,67.29
2019-02-21T14:42:39.853Z,67.53
2019-02-21T14:45:17.619Z,67.49
2019-02-21T14:47:46.208Z,66.96
2019-02-21T14:50:14.887Z,66.71
2019-02-21T14:52:43.492Z,66.41
2019-02-21T14:55:15.973Z,66.05
2019-02-21T14:57:44.414Z,66.62
2019-02-21T15:00:16.023Z,66.59
2019-02-21T15:02:44.456Z,65.95
2019-02-21T15:05:13.088Z,65.18
2019-02-21T15:07:41.632Z,65.56
2019-02-21T15:10:10.938Z,65.54
2019-02-21T15:12:39.403Z,65.61
2019-02-21T15:15:11.223Z,65.84
2019-02-21T15:17:39.835Z,65.46
2019-02-21T15:20:11.053Z,65.58
2019-02-21T15:22:39.610Z,65.69
2019-02-21T15:25:09.182Z,65.65
2019-02-21T15:27:37.652Z,65.65
2019-02-21T15:30:15.344Z,65.42
2019-02-21T15:32:44.911Z,65.31
2019-02-21T15:35:13.792Z,65.60
2019-02-21T15:37:44.802Z,65.34
2019-02-21T15:40:12.513Z,65.54
2019-02-21T15:42:41.040Z,65.54
2019-02-21T15:45:23.025Z,65.69
2019-02-21T15:47:48.535Z,65.64
2019-02-21T15:50:19.730Z,65.79
2019-02-21T15:52:47.902Z,66.08
2019-02-21T15:55:18.300Z,66.28
2019-02-21T15:57:46.780Z,65.87
2019-02-21T16:00:20.235Z,66.22
2019-02-21T16:02:48.777Z,65.96
2019-02-21T16:05:17.416Z,65.85
2019-02-21T16:07:45.973Z,66.01
2019-02-21T16:10:20.218Z,66.14
2019-02-21T16:12:49.503Z,65.88
2019-02-21T16:15:18.478Z,65.99
2019-02-21T16:17:47.031Z,66.10
2019-02-21T16:20:17.310Z,65.91
2019-02-21T16:22:45.856Z,65.86
2019-02-21T16:25:31.667Z,65.88
2019-02-21T16:28:00.258Z,66.09
2019-02-21T16:30:28.759Z,66.59
2019-02-21T16:32:57.306Z,66.76
2019-02-21T16:35:27.345Z,67.27
2019-02-21T16:37:56.010Z,67.79
2019-02-21T16:40:24.462Z,67.92
2019-02-21T16:42:53.003Z,68.56
2019-02-21T16:45:22.931Z,68.63
2019-02-21T16:47:51.617Z,68.34
2019-02-21T16:50:29.252Z,68.71
2019-02-21T16:52:50.433Z,68.60
2019-02-21T16:55:21.160Z,68.71
2019-02-21T16:57:49.604Z,68.96
2019-02-21T17:00:20.351Z,69.45
2019-02-21T17:02:48.869Z,69.43
2019-02-21T17:05:17.634Z,69.52
2019-02-21T17:07:46.189Z,70.07
2019-02-21T17:10:16.128Z,71.26
2019-02-21T17:12:44.697Z,72.37
2019-02-21T17:15:15.239Z,73.09
2019-02-21T17:17:43.772Z,73.58
2019-02-21T17:20:17.154Z,73.47
2019-02-21T17:22:45.785Z,73.30
2019-02-21T17:25:15.557Z,73.23
2019-02-21T17:27:46.146Z,73.90
2019-02-21T17:30:16.404Z,74.09
2019-02-21T17:32:44.949Z,74.26
2019-02-21T17:35:14.007Z,74.58
2019-02-21T17:37:42.546Z,74.85
2019-02-21T17:40:19.368Z,75.28
2019-02-21T17:42:48.040Z,75.47
2019-02-21T17:45:16.837Z,75.26
2019-02-21T17:47:45.508Z,75.58
2019-02-21T17:50:16.437Z,75.67
2019-02-21T17:52:45.059Z,75.34
2019-02-21T17:55:14.337Z,75.55
2019-02-21T17:57:42.985Z,75.73
2019-02-21T18:00:21.781Z,75.54
2019-02-21T18:02:50.467Z,75.69
2019-02-21T18:05:19.064Z,75.90
2019-02-21T18:07:47.613Z,76.20
2019-02-21T18:10:17.108Z,76.33
2019-02-21T18:12:45.603Z,76.57
2019-02-21T18:15:15.594Z,76.85
2019-02-21T18:17:44.265Z,76.56
2019-02-21T18:20:14.029Z,76.35
2019-02-21T18:22:42.560Z,76.58
2019-02-21T18:25:29.209Z,76.90
2019-02-21T18:27:57.866Z,76.87
2019-02-21T18:30:26.378Z,76.88
2019-02-21T18:32:54.993Z,76.42
2019-02-21T18:35:23.616Z,76.59
2019-02-21T18:37:54.989Z,76.73
2019-02-21T18:40:25.106Z,76.62
2019-02-21T18:42:53.605Z,76.81
2019-02-21T18:45:22.234Z,76.98
2019-02-21T18:47:50.780Z,77.09
2019-02-21T18:50:19.312Z,77.24
2019-02-21T18:52:47.901Z,77.08
2019-02-21T18:55:16.478Z,76.88
2019-02-21T18:57:45.065Z,76.84
2019-02-21T19:00:16.898Z,76.75
2019-02-21T19:02:45.392Z,76.61
2019-02-21T19:05:14.115Z,76.88
2019-02-21T19:07:42.644Z,76.86
2019-02-21T19:10:16.687Z,76.76
2019-02-21T19:12:45.239Z,76.75
2019-02-21T19:15:14.969Z,76.49
2019-02-21T19:17:43.533Z,76.63
2019-02-21T19:20:14.529Z,76.80
2019-02-21T19:22:43.396Z,76.83
2019-02-21T19:25:12.669Z,76.72
2019-02-21T19:27:41.273Z,76.89
2019-02-21T19:30:15.726Z,76.90
2019-02-21T19:32:44.232Z,76.80
2019-02-21T19:35:12.889Z,77.01
2019-02-21T19:37:41.585Z,77.25
2019-02-21T19:40:11.062Z,77.10
2019-02-21T19:42:39.625Z,77.17
2019-02-21T19:45:09.211Z,76.98
2019-02-21T19:47:37.891Z,76.94
2019-02-21T19:50:08.663Z,76.55
2019-02-21T19:52:37.454Z,76.64
2019-02-21T19:55:08.149Z,76.65
2019-02-21T19:57:36.936Z,76.58
2019-02-21T20:00:08.422Z,76.65
2019-02-21T20:02:37.319Z,76.52
2019-02-21T20:05:06.728Z,76.37
2019-02-21T20:07:35.259Z,76.23
2019-02-21T20:10:04.822Z,76.03
2019-02-21T20:12:33.497Z,76.36
2019-02-21T20:15:01.994Z,76.13
2019-02-21T20:17:30.568Z,76.21
2019-02-21T20:19:59.049Z,76.22
2019-02-21T20:22:27.599Z,76.14
2019-02-21T20:24:56.115Z,75.96
2019-02-21T20:27:24.773Z,75.98
2019-02-21T20:29:53.215Z,75.87
2019-02-21T20:32:22.019Z,75.85
2019-02-21T20:34:50.546Z,76.14
2019-02-21T20:37:19.044Z,75.95
2019-02-21T20:39:47.720Z,76.03
2019-02-21T20:42:16.385Z,76.14
2019-02-21T20:44:44.903Z,76.10
2019-02-21T20:47:13.430Z,75.72
2019-02-21T20:49:42.163Z,75.73
2019-02-21T20:52:10.693Z,76.09
2019-02-21T20:54:39.376Z,76.18
2019-02-21T20:57:07.995Z,76.14
2019-02-21T20:59:36.558Z,76.16
2019-02-21T21:02:05.256Z,76.57
2019-02-21T21:04:33.917Z,76.56
2019-02-21T21:07:02.572Z,76.70
2019-02-21T21:09:31.166Z,76.85
2019-02-21T21:11:59.737Z,77.04
2019-02-21T21:14:28.198Z,77.18
2019-02-21T21:16:56.843Z,77.27
2019-02-21T21:19:25.393Z,77.30
2019-02-21T21:21:54.056Z,77.23
2019-02-21T21:24:22.559Z,77.38
2019-02-21T21:26:51.163Z,77.49
2019-02-21T21:29:19.753Z,77.55
2019-02-21T21:31:48.345Z,77.32
2019-02-21T21:34:17.089Z,77.38
2019-02-21T21:36:45.714Z,77.52
2019-02-21T21:39:14.379Z,77.39
2019-02-21T21:41:42.922Z,77.54
2019-02-21T21:44:11.416Z,77.38
2019-02-21T21:46:39.999Z,77.42
2019-02-21T21:49:08.644Z,77.50
2019-02-21T21:51:37.235Z,77.50
2019-02-21T21:54:05.827Z,77.65
2019-02-21T21:56:34.307Z,77.71
2019-02-21T21:59:02.921Z,78.01
2019-02-21T22:01:31.466Z,78.12
2019-02-21T22:03:59.963Z,78.04
2019-02-21T22:06:28.587Z,78.11
2019-02-21T22:09:04.428Z,78.34
2019-02-21T22:11:27.519Z,78.15
2019-02-21T22:13:55.972Z,78.36
2019-02-21T22:16:24.596Z,78.09
2019-02-21T22:18:53.319Z,78.12
2019-02-21T22:21:21.784Z,78.19
2019-02-21T22:23:50.326Z,78.32
2019-02-21T22:26:18.837Z,78.48
2019-02-21T22:28:47.416Z,78.79
2019-02-21T22:31:15.851Z,79.06
2019-02-21T22:33:44.490Z,79.35
2019-02-21T22:36:12.930Z,79.49
2019-02-21T22:38:41.990Z,79.63
2019-02-21T22:41:10.451Z,79.84
2019-02-21T22:43:38.986Z,79.90
2019-02-21T22:46:07.422Z,80.08
2019-02-21T22:48:46.630Z,80.26
2019-02-21T22:51:06.145Z,80.53
2019-02-21T22:53:34.653Z,80.26
2019-02-21T22:56:03.159Z,80.26
2019-02-21T22:58:31.636Z,80.94
2019-02-21T23:01:03.802Z,81.00
2019-02-21T23:03:44.807Z,81.24
2019-02-21T23:06:25.073Z,81.42
2019-02-21T23:08:54.693Z,81.58
2019-02-21T23:11:23.777Z,81.72
2019-02-21T23:13:52.543Z,82.04
2019-02-21T23:16:21.156Z,82.31
2019-02-21T23:18:50.094Z,82.50
2019-02-21T23:21:18.650Z,83.65
2019-02-21T23:23:47.218Z,83.65
2019-02-21T23:26:15.784Z,83.47
2019-02-21T23:28:44.247Z,83.34
2019-02-21T23:31:13.109Z,83.34
2019-02-21T23:33:49.427Z,83.52
2019-02-21T23:36:18.029Z,83.80
2019-02-21T23:38:46.606Z,83.89
2019-02-21T23:41:15.228Z,84.10
2019-02-21T23:43:43.664Z,83.98
2019-02-21T23:46:12.171Z,83.85
2019-02-21T23:48:40.838Z,84.00
2019-02-21T23:51:09.293Z,84.32
2019-02-21T23:53:37.755Z,84.52
2019-02-21T23:56:06.178Z,84.74
2019-02-21T23:58:34.622Z,85.11
